Terminal Aerodrome Forecast
Issued by NWS

Home | Current Version | Previous Version | Text Only | Print | Product List | Glossary On
Versions: 1 2 3 4 5 6 7 8 9 10 11 12 13
000
FTUS45 KRIW 270525
TAFJAC
TAF
KJAC 270525Z 2706/2806 VRB08KT P6SM VCTS SCT070CB BKN110
     FM270800 VRB04KT P6SM VCFG FEW002 SCT100
     FM271400 23006KT P6SM FEW040 SCT080
     FM271930 24011KT P6SM VCTS SCT050CB BKN070
     FM280200 35007KT P6SM VCSH SCT070 BKN110
      AMD LTD TO CLD VIS AND WIND=

USA.gov is the U.S. government's official web portal to all federal, state and local government web resources and services.